createdAt,value
2023-01-08T00:04:38.338Z,4.25
2023-01-08T00:09:57.571Z,4.16
2023-01-08T00:15:16.924Z,4.25
2023-01-08T00:20:36.631Z,4.08
2023-01-08T00:25:55.586Z,4.07
2023-01-08T00:31:14.682Z,4.17
2023-01-08T00:36:33.770Z,4.48
2023-01-08T00:41:52.879Z,4.58
2023-01-08T00:47:11.711Z,4.61
2023-01-08T00:52:30.526Z,4.73
2023-01-08T00:57:49.363Z,4.82
2023-01-08T01:03:08.891Z,4.83
2023-01-08T01:08:28.227Z,4.67
2023-01-08T01:13:47.839Z,4.89
2023-01-08T01:19:07.671Z,5.07
2023-01-08T01:24:26.308Z,5.03
2023-01-08T01:29:45.624Z,4.61
2023-01-08T01:35:04.963Z,4.28
2023-01-08T01:40:23.975Z,4.17
2023-01-08T01:45:43.575Z,4.4
2023-01-08T01:51:02.644Z,4.41
2023-01-08T01:56:21.841Z,4.51
2023-01-08T02:01:42.217Z,4.54
2023-01-08T02:07:01.803Z,4.58
2023-01-08T02:14:00.322Z,5.26
2023-01-08T02:17:39.870Z,5.91
2023-01-08T02:22:58.708Z,6.19
2023-01-08T02:28:18.369Z,5.62
2023-01-08T02:33:37.248Z,5.33
2023-01-08T02:38:56.121Z,5.3
2023-01-08T02:44:14.863Z,5.71
2023-01-08T02:49:33.788Z,5.67
2023-01-08T02:54:52.791Z,6.01
2023-01-08T03:00:12.260Z,6.46
2023-01-08T03:05:31.935Z,6.3
2023-01-08T03:10:51.604Z,6.47
2023-01-08T03:16:11.071Z,6.25
2023-01-08T03:21:30.155Z,6.41
2023-01-08T03:26:49.518Z,6.68
2023-01-08T03:32:08.915Z,6.81
2023-01-08T03:37:28.349Z,6.78
2023-01-08T03:42:47.476Z,6.68
2023-01-08T03:48:06.328Z,6.4
2023-01-08T03:53:25.812Z,6.54
2023-01-08T03:58:45.252Z,6.92
2023-01-08T04:04:04.525Z,6.92
2023-01-08T04:09:24.144Z,6.67
2023-01-08T04:14:42.971Z,6.87
2023-01-08T04:20:02.343Z,7.09
2023-01-08T04:25:21.464Z,7.28
2023-01-08T04:30:41.033Z,7.3
2023-01-08T04:37:15.196Z,7.07
2023-01-08T04:41:19.734Z,7.11
2023-01-08T04:46:38.831Z,7.19
2023-01-08T04:51:58.278Z,7.26
2023-01-08T04:57:17.485Z,7.42
2023-01-08T05:02:36.615Z,7.32
2023-01-08T05:07:55.253Z,7.38
2023-01-08T05:13:14.146Z,7.55
2023-01-08T05:18:33.055Z,7.67
2023-01-08T05:23:52.627Z,7.55
2023-01-08T05:29:11.997Z,7.35
2023-01-08T05:34:31.344Z,7.07
2023-01-08T05:39:50.262Z,6.92
2023-01-08T05:45:09.371Z,7.09
2023-01-08T05:50:28.459Z,7.29
2023-01-08T05:55:47.954Z,6.78
2023-01-08T06:01:07.006Z,6.56
2023-01-08T06:06:25.905Z,6.58
2023-01-08T06:11:45.000Z,6.8
2023-01-08T06:17:04.312Z,7.02
2023-01-08T06:22:23.198Z,7.23
2023-01-08T06:27:42.885Z,7.5
2023-01-08T06:33:01.772Z,7.71
2023-01-08T06:38:20.912Z,7.87
2023-01-08T06:43:39.903Z,7.98
2023-01-08T06:48:59.396Z,8.05
2023-01-08T06:54:18.443Z,8.07
2023-01-08T06:59:37.922Z,8.04
2023-01-08T07:04:56.981Z,8
2023-01-08T07:10:19.754Z,7.95
2023-01-08T07:15:36.580Z,7.84
2023-01-08T07:20:55.857Z,7.71
2023-01-08T07:26:15.200Z,7.6
2023-01-08T07:31:34.796Z,7.46
2023-01-08T07:36:52.860Z,7.36
2023-01-08T07:42:12.127Z,7.28
2023-01-08T07:47:31.064Z,7.32
2023-01-08T07:52:50.766Z,7.33
2023-01-08T07:58:10.183Z,7.49
2023-01-08T08:03:29.606Z,7.63
2023-01-08T08:08:48.768Z,7.65
2023-01-08T08:14:08.486Z,7.66
2023-01-08T08:19:27.899Z,7.66
2023-01-08T08:24:47.441Z,7.74
2023-01-08T08:30:06.370Z,7.76
2023-01-08T08:35:25.379Z,7.8
2023-01-08T08:40:44.402Z,7.87
2023-01-08T08:46:03.840Z,7.93
2023-01-08T08:51:22.605Z,7.93
2023-01-08T08:56:41.495Z,7.91
2023-01-08T09:02:00.468Z,8
2023-01-08T09:07:19.586Z,7.98
2023-01-08T09:12:38.785Z,7.98
2023-01-08T09:17:58.340Z,7.98
2023-01-08T09:23:18.321Z,8.05
2023-01-08T09:28:37.223Z,8
2023-01-08T09:33:56.231Z,8.02
2023-01-08T09:39:15.127Z,8.02
2023-01-08T09:44:33.863Z,8.08
2023-01-08T09:49:52.932Z,8.17
2023-01-08T09:55:12.246Z,8.14
2023-01-08T10:00:31.995Z,8.2
2023-01-08T10:05:50.824Z,8.14
2023-01-08T10:11:09.758Z,8.2
2023-01-08T10:16:29.067Z,8.31
2023-01-08T10:21:48.011Z,8.29
2023-01-08T10:27:07.559Z,8.35
2023-01-08T10:32:26.805Z,8.35
2023-01-08T10:37:46.498Z,8.39
2023-01-08T10:43:05.362Z,8.45
2023-01-08T10:48:24.559Z,8.56
2023-01-08T10:53:43.821Z,8.59
2023-01-08T10:59:03.342Z,8.66
2023-01-08T11:04:22.703Z,8.68
2023-01-08T11:09:41.654Z,8.7
2023-01-08T11:15:00.538Z,8.75
2023-01-08T11:20:20.210Z,8.76
2023-01-08T11:25:39.086Z,8.79
2023-01-08T11:30:59.673Z,8.79
2023-01-08T11:36:16.927Z,8.72
2023-01-08T11:41:36.019Z,8.76
2023-01-08T11:46:55.672Z,8.84
2023-01-08T11:52:14.527Z,8.91
2023-01-08T11:57:33.445Z,8.96
2023-01-08T12:02:52.755Z,9.01
2023-01-08T12:08:12.015Z,9.1
2023-01-08T12:13:39.739Z,9.21
2023-01-08T12:18:49.506Z,9.26
2023-01-08T12:24:08.437Z,9.3
2023-01-08T12:29:27.493Z,9.35
2023-01-08T12:34:47.300Z,9.41
2023-01-08T12:40:06.788Z,9.47
2023-01-08T12:45:26.158Z,9.52
2023-01-08T12:50:45.508Z,9.51
2023-01-08T12:56:05.059Z,9.47
2023-01-08T13:01:24.788Z,9.39
2023-01-08T13:06:44.081Z,9.42
2023-01-08T13:12:03.295Z,9.79
2023-01-08T13:17:22.458Z,10.17
2023-01-08T13:22:41.239Z,10
2023-01-08T13:28:00.808Z,9.79
2023-01-08T13:33:19.747Z,9.68
2023-01-08T13:38:39.016Z,9.62
2023-01-08T13:43:58.195Z,9.55
2023-01-08T13:49:17.344Z,9.54
2023-01-08T13:54:36.453Z,9.54
2023-01-08T13:59:56.222Z,9.47
2023-01-08T14:05:15.032Z,9.47
2023-01-08T14:10:34.167Z,9.45
2023-01-08T14:15:53.718Z,9.45
2023-01-08T14:21:12.807Z,9.51
2023-01-08T14:26:32.717Z,9.58
2023-01-08T14:31:51.781Z,9.58
2023-01-08T14:37:10.935Z,9.5
2023-01-08T14:42:30.346Z,9.51
2023-01-08T14:47:49.330Z,9.5
2023-01-08T14:53:08.398Z,9.42
2023-01-08T14:58:27.185Z,9.43
2023-01-08T15:03:46.933Z,9.5
2023-01-08T15:09:05.756Z,9.47
2023-01-08T15:14:25.199Z,9.43
2023-01-08T15:19:45.022Z,9.31
2023-01-08T15:25:03.513Z,9.16
2023-01-08T15:30:22.845Z,9.09
2023-01-08T15:35:42.530Z,9.13
2023-01-08T15:41:01.576Z,9.17
2023-01-08T15:46:20.318Z,9.16
2023-01-08T15:51:39.299Z,9.17
2023-01-08T15:56:58.692Z,9.16
2023-01-08T16:02:17.567Z,9.2
2023-01-08T16:07:36.444Z,9.27
2023-01-08T16:12:55.668Z,9.31
2023-01-08T16:18:15.176Z,9.28
2023-01-08T16:23:33.998Z,9.27
2023-01-08T16:28:52.856Z,9.24
2023-01-08T16:34:12.381Z,9.18
2023-01-08T16:39:31.242Z,9.18
2023-01-08T16:45:15.092Z,9.16
2023-01-08T16:50:34.427Z,9.21
2023-01-08T16:55:53.195Z,9.21
2023-01-08T17:01:12.223Z,9.22
2023-01-08T17:06:31.665Z,9.24
2023-01-08T17:11:50.905Z,9.21
2023-01-08T17:17:10.617Z,9.27
2023-01-08T17:22:29.668Z,9.28
2023-01-08T17:27:49.229Z,9.21
2023-01-08T17:33:08.758Z,9.06
2023-01-08T17:38:27.995Z,8.8
2023-01-08T17:43:48.142Z,8.72
2023-01-08T17:49:07.208Z,8.58
2023-01-08T17:54:26.277Z,8.47
2023-01-08T17:59:46.019Z,8.37
2023-01-08T18:05:04.278Z,8.22
2023-01-08T18:10:23.358Z,8.1
2023-01-08T18:15:42.591Z,7.93
2023-01-08T18:21:01.385Z,7.86
2023-01-08T18:26:20.590Z,7.76
2023-01-08T18:31:39.720Z,7.74
2023-01-08T18:36:58.654Z,7.69
2023-01-08T18:42:17.796Z,7.69
2023-01-08T18:47:36.525Z,7.67
2023-01-08T18:52:55.730Z,7.7
2023-01-08T18:58:14.521Z,7.74
2023-01-08T19:03:34.048Z,7.79
2023-01-08T19:08:53.381Z,7.8
2023-01-08T19:14:12.372Z,7.89
2023-01-08T19:19:31.186Z,7.9
2023-01-08T19:24:50.466Z,7.89
2023-01-08T19:30:09.665Z,7.95
2023-01-08T19:35:29.133Z,7.97
2023-01-08T19:40:48.699Z,7.97
2023-01-08T19:46:07.781Z,7.89
2023-01-08T19:51:26.252Z,7.83
2023-01-08T19:56:45.437Z,7.83
2023-01-08T20:02:05.086Z,7.79
2023-01-08T20:07:23.765Z,7.8
2023-01-08T20:12:43.326Z,7.86
2023-01-08T20:18:02.260Z,7.81
2023-01-08T20:23:20.804Z,7.81
2023-01-08T20:28:39.737Z,7.77
2023-01-08T20:33:58.645Z,7.71
2023-01-08T20:39:17.773Z,7.6
2023-01-08T20:44:37.019Z,7.59
2023-01-08T20:49:56.413Z,7.56
2023-01-08T20:55:16.500Z,7.56
2023-01-08T21:00:35.074Z,7.55
2023-01-08T21:05:54.129Z,7.58
2023-01-08T21:11:13.731Z,7.62
2023-01-08T21:16:33.430Z,7.63
2023-01-08T21:21:52.254Z,7.69
2023-01-08T21:27:11.458Z,7.67
2023-01-08T21:32:30.395Z,7.71
2023-01-08T21:37:48.679Z,7.67
2023-01-08T21:43:07.972Z,7.62
2023-01-08T21:48:26.734Z,7.59
2023-01-08T21:53:46.214Z,7.5
2023-01-08T21:59:05.733Z,7.45
2023-01-08T22:04:25.120Z,7.28
2023-01-08T22:09:44.294Z,7.16
2023-01-08T22:15:03.528Z,7.07
2023-01-08T22:20:22.794Z,7.01
2023-01-08T22:25:41.705Z,6.99
2023-01-08T22:31:00.912Z,6.91
2023-01-08T22:36:19.709Z,6.84
2023-01-08T22:41:39.296Z,6.8
2023-01-08T22:46:58.675Z,6.81
2023-01-08T22:52:18.318Z,6.87
2023-01-08T22:57:37.730Z,6.94
2023-01-08T23:02:56.539Z,7.01
2023-01-08T23:08:15.843Z,7.07
2023-01-08T23:13:35.571Z,6.99
2023-01-08T23:18:55.093Z,6.94
2023-01-08T23:24:13.960Z,6.87
2023-01-08T23:29:33.365Z,6.85
2023-01-08T23:35:02.213Z,6.84
2023-01-08T23:40:12.312Z,6.88
2023-01-08T23:45:31.690Z,6.87
2023-01-08T23:50:51.325Z,6.87
2023-01-08T23:56:10.822Z,6.84
